Time;durP1;ratioP1;P1;durP2;ratioP2;P2;SDS_P1;SDS_P2;PMS_P1;PMS_P2;Temp;Humidity;BMP_temperature;BMP_pressure;BME280_temperature;BME280_humidity;BME280_pressure;Samples;Min_cycle;Max_cycle;Signal;HPM_P1;HPM_P2
2020/12/28 00:01:26;;;;;;;0.68;0.50;;;5.40;92.30;;;;;;5094775;28;20131;-74
2020/12/28 00:03:51;;;;;;;0.38;0.38;;;5.40;92.30;;;;;;5094627;28;20036;-75
2020/12/28 00:06:17;;;;;;;0.68;0.60;;;5.40;92.30;;;;;;5094602;28;20458;-75
2020/12/28 00:08:43;;;;;;;0.52;0.52;;;5.50;92.30;;;;;;5076077;28;20032;-77
2020/12/28 00:11:08;;;;;;;1.02;0.80;;;5.50;92.30;;;;;;5094078;28;20048;-73
2020/12/28 00:13:34;;;;;;;1.48;1.05;;;5.50;92.30;;;;;;5094393;28;20043;-73
2020/12/28 00:16:00;;;;;;;1.73;1.00;;;5.50;92.30;;;;;;5095049;28;20036;-72
2020/12/28 00:18:25;;;;;;;1.17;0.77;;;5.40;92.30;;;;;;5093860;28;20116;-73
2020/12/28 00:20:51;;;;;;;0.82;0.68;;;5.40;92.20;;;;;;5093872;28;20047;-73
2020/12/28 00:23:16;;;;;;;0.73;0.65;;;5.40;92.20;;;;;;5075487;28;20039;-73
2020/12/28 00:25:42;;;;;;;1.00;0.70;;;5.60;92.30;;;;;;5094116;28;20032;-72
2020/12/28 00:28:08;;;;;;;0.88;0.68;;;5.50;92.30;;;;;;5075725;28;20043;-74
2020/12/28 00:30:33;;;;;;;1.38;0.80;;;5.50;92.30;;;;;;5093562;28;20150;-74
2020/12/28 00:32:59;;;;;;;1.65;1.02;;;5.40;92.30;;;;;;5093673;28;20047;-74
2020/12/28 00:35:25;;;;;;;1.67;1.20;;;5.40;92.30;;;;;;5094281;28;20047;-75
2020/12/28 00:37:50;;;;;;;1.20;1.00;;;5.40;92.30;;;;;;5076201;28;20106;-74
2020/12/28 00:40:16;;;;;;;1.42;0.90;;;5.40;92.30;;;;;;5094238;28;20055;-74
2020/12/28 00:42:42;;;;;;;0.90;0.82;;;5.40;92.30;;;;;;5093688;28;20062;-74
2020/12/28 00:45:09;;;;;;;2.30;1.15;;;5.50;92.30;;;;;;5094834;28;20032;-74
2020/12/28 00:47:35;;;;;;;1.60;1.10;;;5.40;92.30;;;;;;5094679;28;20353;-74
2020/12/28 00:50:00;;;;;;;1.38;1.00;;;5.50;92.30;;;;;;5093752;28;20032;-73
2020/12/28 00:52:26;;;;;;;1.13;0.88;;;5.50;92.30;;;;;;5075253;28;20094;-73
2020/12/28 00:54:52;;;;;;;1.77;1.08;;;5.50;92.30;;;;;;5094542;28;20063;-74
2020/12/28 00:57:18;;;;;;;1.60;1.02;;;5.50;92.30;;;;;;5093102;28;20482;-74
2020/12/28 00:59:44;;;;;;;1.35;0.80;;;5.40;92.30;;;;;;5093114;28;20047;-74
2020/12/28 01:02:09;;;;;;;1.05;0.95;;;5.40;92.30;;;;;;5092919;28;20086;-73
2020/12/28 01:04:35;;;;;;;1.20;0.80;;;5.50;92.30;;;;;;5093632;28;20063;-73
2020/12/28 01:07:01;;;;;;;0.88;0.70;;;5.50;92.40;;;;;;5093048;28;20119;-73
2020/12/28 01:09:26;;;;;;;0.65;0.60;;;5.50;92.40;;;;;;5093038;28;20043;-76
2020/12/28 01:11:52;;;;;;;1.42;0.80;;;5.50;92.40;;;;;;5093579;28;20042;-76
2020/12/28 01:14:17;;;;;;;1.27;0.80;;;5.50;92.40;;;;;;5075012;28;20517;-75
2020/12/28 01:16:44;;;;;;;0.90;0.70;;;5.40;92.40;;;;;;5093181;28;20051;-75
2020/12/28 01:19:10;;;;;;;0.52;0.50;;;5.50;92.40;;;;;;5093184;28;20039;-75
2020/12/28 01:21:35;;;;;;;0.95;0.68;;;5.50;92.40;;;;;;5074622;28;20044;-74
2020/12/28 01:24:01;;;;;;;0.80;0.70;;;5.50;92.40;;;;;;5075692;28;20040;-74
2020/12/28 01:26:27;;;;;;;0.60;0.50;;;5.50;92.40;;;;;;5095447;28;20478;-73
2020/12/28 01:28:52;;;;;;;0.57;0.57;;;5.50;92.40;;;;;;5093033;28;20370;-75
2020/12/28 01:31:18;;;;;;;0.70;0.63;;;5.50;92.50;;;;;;5074858;28;20048;-73
2020/12/28 01:33:44;;;;;;;0.82;0.63;;;5.50;92.50;;;;;;5092625;28;20044;-73
2020/12/28 01:36:09;;;;;;;0.75;0.63;;;5.40;92.40;;;;;;5072969;28;20040;-73
2020/12/28 01:38:35;;;;;;;0.60;0.50;;;5.40;92.40;;;;;;5092920;28;20148;-76
2020/12/28 01:41:01;;;;;;;0.65;0.60;;;5.40;92.40;;;;;;5073470;28;20048;-78
2020/12/28 01:43:28;;;;;;;0.77;0.70;;;5.40;92.40;;;;;;5074887;28;20123;-77
2020/12/28 01:45:54;;;;;;;0.73;0.70;;;5.40;92.40;;;;;;5092507;28;20074;-75
2020/12/28 01:48:20;;;;;;;0.80;0.75;;;5.40;92.40;;;;;;5092179;28;20492;-76
2020/12/28 01:50:46;;;;;;;0.55;0.55;;;5.30;92.40;;;;;;5092198;28;20100;-76
2020/12/28 01:53:14;;;;;;;1.02;0.73;;;5.40;92.50;;;;;;5074203;28;20059;-75
2020/12/28 01:55:42;;;;;;;1.00;0.75;;;5.40;92.50;;;;;;5092863;28;20075;-74
2020/12/28 01:58:08;;;;;;;1.17;0.80;;;5.30;92.40;;;;;;5092715;28;20125;-74
2020/12/28 02:00:33;;;;;;;1.58;0.60;;;5.40;92.50;;;;;;5092568;28;20075;-74
2020/12/28 02:02:59;;;;;;;0.60;0.60;;;5.40;92.40;;;;;;5094148;28;20497;-75
2020/12/28 02:05:25;;;;;;;0.63;0.50;;;5.30;92.40;;;;;;5074253;28;20486;-74
2020/12/28 02:07:53;;;;;;;0.98;0.50;;;5.40;92.50;;;;;;5092249;28;20044;-73
2020/12/28 02:10:19;;;;;;;1.00;0.60;;;5.40;92.50;;;;;;5074313;28;20506;-73
2020/12/28 02:12:45;;;;;;;1.00;0.65;;;5.40;92.50;;;;;;5092559;28;20432;-73
2020/12/28 02:15:11;;;;;;;1.15;0.63;;;5.40;92.50;;;;;;5092075;28;20089;-73
2020/12/28 02:17:37;;;;;;;0.50;0.50;;;5.30;92.40;;;;;;5092594;28;20044;-73
2020/12/28 02:20:03;;;;;;;0.88;0.60;;;5.40;92.50;;;;;;5091943;28;20036;-73
2020/12/28 02:22:28;;;;;;;0.60;0.50;;;5.30;92.80;;;;;;5070719;28;20136;-74
2020/12/28 02:24:54;;;;;;;0.50;0.50;;;5.30;92.50;;;;;;5073948;28;20051;-74
2020/12/28 02:27:20;;;;;;;0.43;0.40;;;5.30;92.50;;;;;;5091991;28;20036;-73
2020/12/28 02:29:45;;;;;;;0.45;0.40;;;5.30;92.50;;;;;;5091999;28;20036;-73
2020/12/28 02:32:11;;;;;;;1.48;0.40;;;5.30;92.50;;;;;;5091982;28;20405;-73
2020/12/28 02:34:37;;;;;;;0.55;0.40;;;5.30;92.50;;;;;;5073200;28;20918;-73
2020/12/28 02:37:03;;;;;;;0.85;0.32;;;5.30;92.60;;;;;;5092176;28;20044;-74
2020/12/28 02:39:28;;;;;;;0.50;0.40;;;5.20;92.50;;;;;;5092650;28;20044;-73
2020/12/28 02:41:54;;;;;;;0.40;0.32;;;5.30;92.50;;;;;;5074793;28;20112;-73
2020/12/28 02:44:20;;;;;;;0.38;0.38;;;5.40;92.50;;;;;;5092208;28;20066;-73
2020/12/28 02:46:45;;;;;;;0.30;0.30;;;5.30;92.50;;;;;;5092438;28;20038;-73
2020/12/28 02:49:11;;;;;;;0.40;0.40;;;5.30;92.50;;;;;;5074190;28;20036;-73
2020/12/28 02:51:36;;;;;;;0.52;0.50;;;5.40;92.50;;;;;;5092619;28;20044;-73
2020/12/28 02:54:02;;;;;;;0.35;0.35;;;5.20;92.50;;;;;;5091634;28;20043;-75
2020/12/28 02:56:28;;;;;;;0.57;0.50;;;5.30;92.50;;;;;;5091559;28;20051;-73
2020/12/28 02:58:54;;;;;;;0.55;0.55;;;5.30;92.50;;;;;;5091636;28;20354;-74
2020/12/28 03:01:19;;;;;;;0.93;0.70;;;5.30;92.50;;;;;;5095014;28;20040;-73
2020/12/28 03:03:45;;;;;;;1.10;0.70;;;5.30;92.50;;;;;;5095488;28;20032;-73
2020/12/28 03:06:11;;;;;;;1.42;0.82;;;5.20;92.40;;;;;;5095577;28;20088;-73
2020/12/28 03:08:36;;;;;;;2.22;0.90;;;5.20;92.40;;;;;;5094973;28;20042;-73
2020/12/28 03:11:02;;;;;;;1.20;0.68;;;5.20;92.40;;;;;;5074929;28;20052;-73
2020/12/28 03:13:28;;;;;;;1.20;0.90;;;5.20;92.40;;;;;;5095341;28;20036;-73
2020/12/28 03:15:53;;;;;;;1.02;0.80;;;5.20;92.40;;;;;;5094925;28;20032;-73
2020/12/28 03:18:19;;;;;;;1.02;0.80;;;5.20;92.40;;;;;;5095836;28;20394;-73
2020/12/28 03:20:45;;;;;;;1.20;1.00;;;5.20;92.40;;;;;;5094841;28;20166;-73
2020/12/28 03:23:10;;;;;;;1.42;1.00;;;5.30;92.40;;;;;;5095142;28;20032;-73
2020/12/28 03:25:36;;;;;;;2.28;0.82;;;5.20;92.40;;;;;;5095269;28;20533;-73
2020/12/28 03:28:02;;;;;;;0.80;0.68;;;5.20;92.40;;;;;;5095043;28;20043;-73
2020/12/28 03:30:28;;;;;;;1.58;1.05;;;5.20;92.40;;;;;;5094980;28;20036;-73
2020/12/28 03:32:53;;;;;;;1.75;0.85;;;5.20;92.40;;;;;;5094609;28;20043;-73
2020/12/28 03:35:19;;;;;;;2.60;1.15;;;5.10;92.40;;;;;;5095385;28;20509;-73
2020/12/28 03:37:45;;;;;;;2.22;1.08;;;5.10;92.40;;;;;;5094741;28;20394;-73
2020/12/28 03:40:11;;;;;;;1.25;0.90;;;5.10;92.40;;;;;;5094799;28;20055;-73
2020/12/28 03:42:38;;;;;;;1.90;1.00;;;5.10;92.40;;;;;;5095449;28;20044;-73
2020/12/28 03:45:04;;;;;;;1.58;1.20;;;5.10;92.40;;;;;;5077587;28;20392;-74
2020/12/28 03:47:30;;;;;;;1.80;1.30;;;5.20;92.40;;;;;;5094889;28;20044;-73
2020/12/28 03:49:55;;;;;;;1.92;1.15;;;5.10;92.30;;;;;;5094506;28;20095;-73
2020/12/28 03:52:21;;;;;;;1.73;1.13;;;5.10;92.30;;;;;;5094600;28;20047;-73
2020/12/28 03:54:47;;;;;;;2.97;1.60;;;5.00;92.30;;;;;;5095170;28;20044;-73
2020/12/28 03:57:13;;;;;;;2.72;1.13;;;5.00;92.30;;;;;;5094455;28;20547;-73
2020/12/28 03:59:39;;;;;;;2.70;1.40;;;5.10;92.30;;;;;;5094831;28;20036;-73
2020/12/28 04:02:05;;;;;;;1.45;0.90;;;5.00;92.30;;;;;;5094216;28;20040;-73
2020/12/28 04:04:30;;;;;;;1.80;0.95;;;5.00;92.30;;;;;;5094298;28;20043;-73
2020/12/28 04:06:56;;;;;;;1.48;0.90;;;5.00;92.30;;;;;;5094088;28;20394;-73
2020/12/28 04:09:22;;;;;;;1.33;0.88;;;5.00;92.30;;;;;;5094037;28;20036;-73
2020/12/28 04:11:47;;;;;;;1.00;0.70;;;5.00;92.40;;;;;;5093737;28;20043;-74
2020/12/28 04:14:13;;;;;;;0.80;0.57;;;5.00;92.40;;;;;;5094085;28;20051;-73
2020/12/28 04:16:39;;;;;;;1.02;0.60;;;5.00;92.40;;;;;;5075912;28;20036;-73
2020/12/28 04:19:04;;;;;;;0.65;0.60;;;5.00;92.40;;;;;;5094248;28;20152;-73
2020/12/28 04:21:30;;;;;;;1.38;0.60;;;4.90;92.40;;;;;;5093840;28;20032;-73
2020/12/28 04:23:56;;;;;;;1.60;0.60;;;4.90;92.50;;;;;;5093871;28;20504;-73
2020/12/28 04:26:21;;;;;;;0.88;0.70;;;4.90;92.50;;;;;;5094139;28;20462;-73
2020/12/28 04:28:47;;;;;;;1.00;0.70;;;4.80;92.50;;;;;;5094268;28;20040;-73
2020/12/28 04:31:13;;;;;;;0.85;0.68;;;4.80;92.50;;;;;;5075572;28;20043;-73
2020/12/28 04:33:39;;;;;;;0.90;0.65;;;4.70;92.50;;;;;;5093769;28;20055;-73
2020/12/28 04:36:05;;;;;;;0.75;0.60;;;4.70;92.50;;;;;;5093460;28;20092;-73
2020/12/28 04:38:31;;;;;;;0.65;0.63;;;4.60;92.50;;;;;;5093575;28;20044;-73
2020/12/28 04:40:57;;;;;;;0.50;0.50;;;4.60;92.60;;;;;;5075302;28;20040;-73
2020/12/28 04:43:25;;;;;;;0.65;0.50;;;4.60;92.60;;;;;;5075617;28;20036;-73
2020/12/28 04:46:00;;;;;;;0.57;0.50;;;4.50;92.60;;;;;;5093318;28;20048;-73
2020/12/28 04:48:28;;;;;;;0.80;0.60;;;4.40;92.70;;;;;;5073827;28;20043;-73
2020/12/28 04:50:56;;;;;;;0.43;0.38;;;4.40;92.70;;;;;;5093506;28;20500;-73
2020/12/28 04:53:23;;;;;;;0.65;0.50;;;4.40;92.90;;;;;;5093123;28;20119;-73
2020/12/28 04:55:49;;;;;;;0.35;0.32;;;4.40;92.90;;;;;;5093473;28;20142;-73
2020/12/28 04:58:16;;;;;;;1.35;0.30;;;4.30;92.80;;;;;;5075119;28;20122;-73
2020/12/28 05:00:43;;;;;;;0.65;0.43;;;4.30;92.80;;;;;;5093558;28;20374;-73
2020/12/28 05:03:09;;;;;;;0.35;0.30;;;4.20;92.80;;;;;;5075431;28;20048;-73
2020/12/28 05:05:44;;;;;;;0.30;0.30;;;4.20;92.80;;;;;;5093368;28;20074;-73
2020/12/28 05:08:09;;;;;;;0.22;0.20;;;4.10;92.80;;;;;;5093326;28;20047;-74
2020/12/28 05:10:35;;;;;;;0.20;0.15;;;4.10;92.90;;;;;;5093548;28;20048;-73
2020/12/28 05:13:10;;;;;;;0.40;0.40;;;4.10;92.90;;;;;;5093326;28;20044;-73
2020/12/28 05:15:46;;;;;;;0.32;0.25;;;4.00;93.00;;;;;;5093226;28;20043;-73
2020/12/28 05:18:14;;;;;;;0.35;0.20;;;4.00;93.00;;;;;;5093089;28;20512;-73
2020/12/28 05:20:44;;;;;;;0.25;0.25;;;4.00;93.00;;;;;;5093280;28;20040;-73
2020/12/28 05:23:10;;;;;;;0.50;0.20;;;4.00;93.00;;;;;;5091680;28;20039;-73
2020/12/28 05:25:37;;;;;;;0.10;0.10;;;4.00;93.00;;;;;;5093236;28;20163;-73
2020/12/28 05:28:04;;;;;;;0.22;0.22;;;3.90;93.00;;;;;;5093429;28;20487;-73
2020/12/28 05:30:32;;;;;;;0.25;0.25;;;3.90;93.00;;;;;;5093370;28;20420;-73
2020/12/28 05:33:03;;;;;;;0.20;0.20;;;3.80;93.00;;;;;;5093451;28;20032;-73
2020/12/28 05:35:29;;;;;;;0.77;0.22;;;3.80;93.00;;;;;;5092592;28;20036;-73
2020/12/28 05:37:56;;;;;;;0.30;0.30;;;3.80;93.00;;;;;;5093314;28;20474;-73
2020/12/28 05:40:22;;;;;;;0.50;0.22;;;3.80;93.00;;;;;;5092567;28;20485;-73
2020/12/28 05:42:50;;;;;;;0.22;0.22;;;3.80;93.00;;;;;;5093309;28;20105;-73
2020/12/28 05:45:16;;;;;;;0.55;0.20;;;3.80;93.00;;;;;;5092871;28;20119;-73
2020/12/28 05:47:49;;;;;;;0.20;0.20;;;3.80;93.00;;;;;;5075154;28;20034;-73
2020/12/28 05:50:20;;;;;;;0.20;0.20;;;3.80;93.00;;;;;;5074876;28;20079;-74
2020/12/28 05:52:52;;;;;;;0.50;0.28;;;3.80;93.00;;;;;;5092867;28;20044;-73
2020/12/28 05:55:20;;;;;;;0.20;0.20;;;3.80;93.00;;;;;;5092971;28;20044;-73
2020/12/28 05:57:46;;;;;;;0.20;0.20;;;3.70;93.00;;;;;;5093030;28;20047;-73
2020/12/28 06:00:12;;;;;;;0.20;0.20;;;3.80;93.00;;;;;;5092859;28;20032;-73
2020/12/28 06:02:39;;;;;;;0.28;0.20;;;3.80;93.00;;;;;;5092413;28;20044;-73
2020/12/28 06:05:07;;;;;;;0.55;0.25;;;3.80;92.90;;;;;;5091994;28;20106;-73
2020/12/28 06:07:33;;;;;;;0.17;0.17;;;3.80;92.90;;;;;;5092335;28;20044;-74
2020/12/28 06:09:59;;;;;;;0.20;0.20;;;3.80;92.90;;;;;;5092120;28;20043;-73
2020/12/28 06:12:25;;;;;;;0.22;0.22;;;3.80;92.90;;;;;;5092502;28;20038;-73
2020/12/28 06:14:51;;;;;;;0.20;0.20;;;3.90;92.90;;;;;;5092054;28;20390;-73
2020/12/28 06:17:17;;;;;;;0.20;0.20;;;3.90;92.90;;;;;;5091947;28;20089;-73
2020/12/28 06:19:43;;;;;;;0.30;0.30;;;3.90;92.80;;;;;;5092206;28;20122;-73
2020/12/28 06:22:24;;;;;;;0.38;0.30;;;3.90;92.80;;;;;;5073909;28;20128;-73
2020/12/28 06:25:07;;;;;;;0.22;0.20;;;3.90;92.80;;;;;;5091987;28;20032;-73
2020/12/28 06:27:38;;;;;;;0.35;0.30;;;4.00;92.80;;;;;;5091917;28;20036;-73
2020/12/28 06:30:20;;;;;;;0.63;0.30;;;4.00;92.80;;;;;;5092277;28;20047;-73
2020/12/28 06:32:48;;;;;;;0.15;0.15;;;4.00;92.70;;;;;;5073790;28;20525;-73
2020/12/28 06:35:17;;;;;;;0.30;0.30;;;4.10;92.80;;;;;;5095430;28;20040;-73
2020/12/28 06:37:52;;;;;;;0.35;0.20;;;4.00;92.70;;;;;;5095327;28;20497;-73
2020/12/28 06:40:32;;;;;;;0.30;0.30;;;4.00;92.70;;;;;;5076985;28;20083;-73
2020/12/28 06:43:13;;;;;;;0.30;0.30;;;4.10;92.70;;;;;;5095369;28;20048;-73
2020/12/28 06:45:40;;;;;;;0.50;0.30;;;4.00;92.70;;;;;;5095400;28;20180;-73
2020/12/28 06:48:23;;;;;;;0.22;0.22;;;4.00;92.70;;;;;;5096035;28;20172;-73
2020/12/28 06:50:52;;;;;;;0.40;0.40;;;4.00;92.70;;;;;;5076934;28;20135;-73
2020/12/28 06:53:21;;;;;;;0.35;0.22;;;4.10;92.70;;;;;;5095303;28;20051;-73
2020/12/28 06:55:48;;;;;;;0.50;0.30;;;4.10;92.70;;;;;;5095378;28;20063;-73
2020/12/28 06:58:14;;;;;;;0.52;0.40;;;4.10;92.70;;;;;;5095410;28;20080;-73
2020/12/28 07:00:40;;;;;;;0.73;0.40;;;4.10;92.70;;;;;;5095114;28;20036;-73
2020/12/28 07:03:14;;;;;;;0.30;0.30;;;4.10;92.70;;;;;;5095073;28;20383;-73
2020/12/28 07:05:41;;;;;;;0.43;0.30;;;4.10;92.70;;;;;;5095111;28;20040;-73
2020/12/28 07:08:07;;;;;;;0.82;0.60;;;4.10;92.70;;;;;;5095448;28;20040;-73
2020/12/28 07:10:33;;;;;;;0.35;0.30;;;4.10;92.70;;;;;;5095155;28;20032;-73
2020/12/28 07:13:07;;;;;;;0.50;0.40;;;4.10;92.70;;;;;;5095392;28;20516;-72
2020/12/28 07:15:33;;;;;;;0.43;0.35;;;4.10;92.70;;;;;;5095094;28;20109;-73
2020/12/28 07:18:07;;;;;;;0.40;0.30;;;4.10;92.70;;;;;;5095383;28;20040;-73
2020/12/28 07:20:33;;;;;;;0.40;0.30;;;4.20;92.70;;;;;;5075529;28;20036;-73
2020/12/28 07:22:59;;;;;;;0.80;0.40;;;4.20;92.70;;;;;;5095170;28;20397;-73
2020/12/28 07:25:24;;;;;;;0.47;0.40;;;4.10;92.70;;;;;;5095038;28;20028;-73
2020/12/28 07:27:51;;;;;;;0.63;0.40;;;4.20;92.70;;;;;;5094692;28;20551;-73
2020/12/28 07:30:20;;;;;;;0.65;0.45;;;4.20;92.70;;;;;;5094514;28;20124;-73
2020/12/28 07:32:45;;;;;;;1.42;0.80;;;4.20;92.70;;;;;;5094687;28;20123;-73
2020/12/28 07:35:11;;;;;;;1.02;0.47;;;4.20;92.70;;;;;;5094443;28;20040;-73
2020/12/28 07:37:39;;;;;;;0.50;0.40;;;4.20;92.70;;;;;;5094579;28;20108;-73
2020/12/28 07:40:06;;;;;;;0.38;0.25;;;4.20;92.70;;;;;;5094331;28;20382;-73
2020/12/28 07:42:32;;;;;;;0.55;0.35;;;4.20;92.70;;;;;;5094663;28;20100;-73
2020/12/28 07:44:59;;;;;;;0.70;0.40;;;4.20;92.70;;;;;;5093938;28;20043;-74
2020/12/28 07:47:45;;;;;;;0.60;0.40;;;4.20;92.70;;;;;;5094346;28;20059;-73
2020/12/28 07:50:14;;;;;;;0.77;0.40;;;4.20;92.70;;;;;;5094043;28;20075;-73
2020/12/28 07:52:52;;;;;;;0.30;0.30;;;4.20;92.60;;;;;;5076495;28;20048;-73
2020/12/28 07:55:24;;;;;;;0.68;0.50;;;4.30;92.70;;;;;;5094068;28;20094;-73
2020/12/28 07:58:09;;;;;;;0.40;0.38;;;4.30;92.70;;;;;;5093915;28;20047;-73
2020/12/28 08:00:43;;;;;;;0.57;0.40;;;4.30;92.70;;;;;;5094073;28;20036;-73
2020/12/28 08:03:22;;;;;;;0.63;0.32;;;4.20;92.60;;;;;;5094163;28;20043;-73
2020/12/28 08:05:49;;;;;;;0.47;0.30;;;4.30;92.70;;;;;;5094078;28;20063;-73
2020/12/28 08:08:24;;;;;;;0.20;0.20;;;4.30;92.60;;;;;;5094172;28;20074;-73
2020/12/28 08:10:54;;;;;;;0.57;0.45;;;4.30;92.60;;;;;;5094217;28;20055;-73
2020/12/28 08:13:24;;;;;;;0.27;0.27;;;4.30;92.60;;;;;;5094153;28;20040;-73
2020/12/28 08:15:49;;;;;;;0.32;0.30;;;4.30;92.60;;;;;;5094218;28;20043;-73
2020/12/28 08:18:15;;;;;;;0.63;0.40;;;4.30;92.60;;;;;;5094084;28;20055;-73
2020/12/28 08:20:41;;;;;;;0.20;0.20;;;4.30;92.60;;;;;;5093931;28;20044;-73
2020/12/28 08:23:07;;;;;;;0.85;0.40;;;4.40;92.60;;;;;;5093884;28;20036;-74
2020/12/28 08:25:35;;;;;;;0.22;0.22;;;4.40;92.60;;;;;;5094161;28;20043;-73
2020/12/28 08:28:02;;;;;;;0.55;0.45;;;4.30;92.60;;;;;;5094187;28;20039;-73
2020/12/28 08:30:29;;;;;;;0.25;0.25;;;4.40;92.60;;;;;;5093880;28;20115;-73
2020/12/28 08:32:59;;;;;;;0.73;0.40;;;4.50;92.60;;;;;;5094169;28;20038;-73
2020/12/28 08:35:25;;;;;;;0.40;0.30;;;4.40;92.60;;;;;;5075968;28;20186;-74
2020/12/28 08:37:52;;;;;;;0.52;0.30;;;4.40;92.60;;;;;;5093721;28;20042;-73
2020/12/28 08:40:21;;;;;;;0.47;0.20;;;4.40;92.60;;;;;;5093702;28;20522;-73
2020/12/28 08:42:56;;;;;;;0.30;0.30;;;4.50;92.60;;;;;;5093405;28;20486;-73
2020/12/28 08:45:24;;;;;;;0.28;0.20;;;4.40;92.60;;;;;;5093522;28;20494;-73
2020/12/28 08:47:52;;;;;;;0.30;0.25;;;4.50;92.60;;;;;;5093610;28;20094;-73
2020/12/28 08:50:18;;;;;;;0.30;0.30;;;4.40;92.60;;;;;;5093426;28;20485;-73
2020/12/28 08:52:48;;;;;;;0.22;0.22;;;4.50;92.60;;;;;;5093274;28;20055;-73
2020/12/28 08:55:14;;;;;;;0.38;0.30;;;4.50;92.60;;;;;;5093733;28;20062;-74
2020/12/28 08:57:39;;;;;;;0.30;0.30;;;4.50;92.50;;;;;;5093577;28;20405;-73
2020/12/28 09:00:05;;;;;;;0.43;0.30;;;4.50;92.50;;;;;;5075397;28;20056;-74
2020/12/28 09:02:32;;;;;;;0.47;0.40;;;4.50;92.50;;;;;;5093491;28;20059;-73
2020/12/28 09:04:58;;;;;;;0.82;0.40;;;4.50;92.60;;;;;;5093362;28;20062;-73
2020/12/28 09:07:24;;;;;;;0.57;0.35;;;4.50;92.60;;;;;;5093488;28;20498;-73
2020/12/28 09:09:50;;;;;;;0.20;0.20;;;4.40;92.60;;;;;;5093113;28;20036;-73
2020/12/28 09:12:16;;;;;;;0.40;0.40;;;4.50;92.60;;;;;;5092966;28;20052;-73
2020/12/28 09:14:42;;;;;;;0.22;0.20;;;4.50;92.60;;;;;;5075010;28;20125;-73
2020/12/28 09:17:08;;;;;;;0.20;0.20;;;4.50;92.60;;;;;;5092922;28;20074;-73
2020/12/28 09:19:34;;;;;;;0.52;0.45;;;4.50;92.60;;;;;;5074729;28;20470;-73
2020/12/28 09:22:00;;;;;;;0.38;0.30;;;4.50;92.60;;;;;;5093195;28;20036;-73
2020/12/28 09:24:27;;;;;;;0.20;0.20;;;4.50;92.60;;;;;;5093467;28;20089;-73
2020/12/28 09:26:56;;;;;;;0.20;0.20;;;4.50;92.60;;;;;;5092991;28;20035;-73
2020/12/28 09:29:22;;;;;;;0.20;0.20;;;4.50;92.60;;;;;;5093397;28;20050;-73
2020/12/28 09:31:48;;;;;;;0.60;0.32;;;4.50;92.60;;;;;;5092750;28;21282;-73
2020/12/28 09:34:13;;;;;;;0.20;0.20;;;4.50;92.60;;;;;;5092670;28;20436;-72
2020/12/28 09:36:39;;;;;;;0.40;0.28;;;4.50;92.50;;;;;;5092651;28;20051;-73
2020/12/28 09:39:05;;;;;;;0.20;0.20;;;4.50;92.50;;;;;;5093217;28;20032;-73
2020/12/28 09:41:31;;;;;;;0.30;0.20;;;4.60;92.50;;;;;;5093222;28;20046;-73
2020/12/28 09:43:56;;;;;;;0.45;0.30;;;4.60;92.50;;;;;;5092908;28;20116;-73
2020/12/28 09:46:22;;;;;;;0.25;0.25;;;4.60;92.50;;;;;;5092517;28;20371;-73
2020/12/28 09:48:49;;;;;;;0.30;0.30;;;4.60;92.50;;;;;;5092768;28;20570;-73
2020/12/28 09:51:16;;;;;;;0.40;0.30;;;4.60;92.40;;;;;;5092499;28;20398;-73
2020/12/28 09:53:42;;;;;;;0.73;0.40;;;4.70;92.50;;;;;;5092523;28;20088;-73
2020/12/28 09:56:09;;;;;;;0.47;0.30;;;4.70;92.40;;;;;;5092390;28;20044;-72
2020/12/28 09:58:35;;;;;;;0.30;0.30;;;4.70;92.50;;;;;;5092506;28;20065;-72
2020/12/28 10:01:01;;;;;;;0.20;0.20;;;4.70;92.40;;;;;;5092323;28;20549;-73
2020/12/28 10:03:27;;;;;;;0.20;0.20;;;4.70;92.40;;;;;;5092285;28;20032;-73
2020/12/28 10:05:53;;;;;;;0.20;0.20;;;4.70;92.40;;;;;;5092241;28;20123;-74
2020/12/28 10:08:21;;;;;;;0.20;0.20;;;4.70;92.40;;;;;;5091711;28;20040;-72
2020/12/28 10:10:47;;;;;;;0.30;0.30;;;4.70;92.40;;;;;;5092298;28;20028;-73
2020/12/28 10:13:13;;;;;;;0.30;0.22;;;4.70;92.40;;;;;;5092291;28;20043;-73
2020/12/28 10:15:39;;;;;;;0.30;0.30;;;4.70;92.40;;;;;;5092531;28;20106;-73
2020/12/28 10:18:39;;;;;;;0.35;0.20;;;4.70;92.40;;;;;;5092179;28;20036;-75
2020/12/28 10:21:08;;;;;;;0.20;0.20;;;4.80;92.40;;;;;;5092525;28;20036;-74
2020/12/28 10:23:34;;;;;;;0.25;0.25;;;4.80;92.30;;;;;;5073141;28;20119;-74
2020/12/28 10:26:00;;;;;;;0.20;0.20;;;4.80;92.30;;;;;;5092471;28;20067;-74
2020/12/28 10:28:25;;;;;;;0.30;0.28;;;4.90;92.30;;;;;;5093349;28;20343;-74
2020/12/28 10:30:51;;;;;;;0.20;0.20;;;5.00;92.30;;;;;;5093470;28;20086;-73
2020/12/28 10:33:17;;;;;;;0.38;0.20;;;5.00;92.20;;;;;;5092740;28;20051;-73
2020/12/28 10:35:42;;;;;;;0.10;0.10;;;5.10;92.20;;;;;;5092683;28;20489;-73
2020/12/28 10:38:08;;;;;;;0.93;0.45;;;5.10;92.20;;;;;;5092274;28;20039;-75
2020/12/28 10:40:34;;;;;;;0.40;0.30;;;5.20;92.20;;;;;;5093756;28;20389;-74
2020/12/28 10:43:00;;;;;;;0.20;0.20;;;5.30;92.10;;;;;;5078298;28;20046;-73
2020/12/28 10:45:26;;;;;;;0.60;0.30;;;5.40;92.00;;;;;;5094839;28;20119;-74
2020/12/28 10:47:52;;;;;;;0.20;0.20;;;5.40;91.90;;;;;;5094730;28;20043;-75
2020/12/28 10:50:18;;;;;;;0.22;0.20;;;5.50;91.90;;;;;;5094331;28;20505;-74
2020/12/28 10:52:44;;;;;;;0.20;0.20;;;5.50;91.90;;;;;;5078447;28;20409;-74
2020/12/28 10:55:09;;;;;;;0.20;0.20;;;5.50;91.80;;;;;;5093157;28;20032;-72
2020/12/28 10:57:35;;;;;;;0.15;0.15;;;5.50;91.80;;;;;;5091769;28;20040;-73
2020/12/28 11:00:01;;;;;;;0.10;0.10;;;5.50;91.80;;;;;;5092917;28;20378;-73
2020/12/28 11:02:26;;;;;;;0.35;0.20;;;5.40;91.80;;;;;;5093044;28;20138;-73
2020/12/28 11:04:52;;;;;;;0.68;0.10;;;5.40;91.90;;;;;;5091541;28;20040;-70
2020/12/28 11:07:17;;;;;;;0.10;0.10;;;5.30;91.90;;;;;;5091488;28;20414;-73
2020/12/28 11:09:43;;;;;;;0.20;0.20;;;5.30;91.90;;;;;;5091540;28;20437;-73
2020/12/28 11:12:09;;;;;;;0.17;0.17;;;5.30;92.00;;;;;;5091453;28;20040;-74
2020/12/28 11:14:34;;;;;;;0.10;0.10;;;5.30;92.00;;;;;;5091731;28;20126;-72
2020/12/28 11:17:02;;;;;;;0.10;0.10;;;5.20;92.00;;;;;;5091165;28;20393;-74
2020/12/28 11:19:28;;;;;;;0.20;0.20;;;5.20;92.10;;;;;;5091207;28;20169;-73
2020/12/28 11:21:53;;;;;;;0.30;0.20;;;5.20;92.10;;;;;;5094727;28;20116;-73
2020/12/28 11:24:19;;;;;;;0.10;0.10;;;5.20;92.10;;;;;;5095480;28;20040;-73
2020/12/28 11:26:45;;;;;;;0.10;0.10;;;5.20;92.10;;;;;;5095321;28;20569;-74
2020/12/28 11:29:10;;;;;;;0.30;0.30;;;5.20;92.10;;;;;;5094974;28;20067;-74
2020/12/28 11:31:36;;;;;;;0.20;0.20;;;5.20;92.10;;;;;;5077373;28;20040;-73
2020/12/28 11:34:02;;;;;;;0.25;0.10;;;5.20;92.10;;;;;;5094947;28;20436;-73
2020/12/28 11:36:27;;;;;;;1.35;0.20;;;5.20;92.10;;;;;;5076866;28;20039;-73
2020/12/28 11:38:53;;;;;;;0.38;0.20;;;5.20;92.10;;;;;;5095038;28;20051;-73
2020/12/28 11:41:19;;;;;;;0.30;0.17;;;5.10;92.10;;;;;;5094591;28;20085;-73
2020/12/28 11:43:45;;;;;;;0.10;0.10;;;5.10;92.10;;;;;;5094914;28;20402;-73
2020/12/28 11:46:12;;;;;;;0.15;0.15;;;5.20;92.10;;;;;;5095167;28;20051;-73
2020/12/28 11:48:39;;;;;;;0.08;0.08;;;5.20;92.10;;;;;;5094812;28;20044;-73
2020/12/28 11:51:08;;;;;;;0.17;0.17;;;5.10;92.10;;;;;;5094709;28;20044;-72
2020/12/28 11:53:35;;;;;;;0.20;0.20;;;5.20;92.10;;;;;;5094494;28;20043;-72
2020/12/28 11:56:12;;;;;;;0.10;0.10;;;5.20;92.10;;;;;;5094838;28;20055;-73
2020/12/28 11:58:40;;;;;;;0.10;0.10;;;5.20;92.10;;;;;;5094535;28;20123;-73
2020/12/28 12:01:13;;;;;;;0.20;0.20;;;5.20;92.00;;;;;;5094864;28;20050;-73
2020/12/28 12:03:39;;;;;;;0.20;0.10;;;5.30;92.00;;;;;;5095254;28;20040;-73
2020/12/28 12:06:05;;;;;;;0.25;0.10;;;5.30;92.00;;;;;;5094851;28;20116;-72
2020/12/28 12:08:31;;;;;;;0.30;0.20;;;5.40;92.00;;;;;;5094401;28;20063;-73
2020/12/28 12:10:57;;;;;;;0.10;0.10;;;5.30;91.90;;;;;;5094596;28;20071;-73
2020/12/28 12:13:23;;;;;;;0.10;0.10;;;5.30;91.90;;;;;;5076354;28;20094;-73
2020/12/28 12:15:52;;;;;;;0.68;0.30;;;5.40;91.90;;;;;;5094870;28;20044;-73
2020/12/28 12:18:18;;;;;;;0.10;0.10;;;5.50;91.90;;;;;;5094530;28;20036;-73
2020/12/28 12:20:44;;;;;;;0.40;0.20;;;5.40;91.80;;;;;;5094332;28;20494;-73
2020/12/28 12:23:09;;;;;;;0.40;0.10;;;5.50;91.80;;;;;;5094451;28;20930;-72
2020/12/28 12:25:35;;;;;;;0.30;0.30;;;5.40;91.80;;;;;;5094477;28;20051;-73
2020/12/28 12:28:01;;;;;;;0.45;0.28;;;5.50;91.80;;;;;;5094428;28;20040;-74
2020/12/28 12:30:28;;;;;;;0.30;0.30;;;5.50;91.80;;;;;;5094179;28;20032;-73
2020/12/28 12:32:54;;;;;;;2.05;0.28;;;5.50;91.70;;;;;;5093910;28;20398;-73
2020/12/28 12:35:20;;;;;;;0.10;0.10;;;5.60;91.80;;;;;;5094362;28;20040;-73
2020/12/28 12:37:46;;;;;;;0.17;0.17;;;5.60;91.70;;;;;;5076236;28;20189;-73
2020/12/28 12:40:11;;;;;;;0.10;0.10;;;5.60;91.70;;;;;;5094039;28;20632;-73
2020/12/28 12:42:37;;;;;;;0.10;0.10;;;5.60;91.70;;;;;;5094126;28;20063;-73
2020/12/28 12:45:03;;;;;;;0.10;0.10;;;5.60;91.70;;;;;;5094184;28;20044;-73
2020/12/28 12:47:29;;;;;;;0.68;0.30;;;5.60;91.60;;;;;;5093602;28;20078;-73
2020/12/28 12:49:54;;;;;;;0.38;0.22;;;5.70;91.70;;;;;;5093822;28;20044;-73
2020/12/28 12:52:23;;;;;;;0.22;0.20;;;5.70;91.60;;;;;;5074375;28;20079;-74
2020/12/28 12:54:49;;;;;;;0.20;0.20;;;5.80;91.60;;;;;;5094147;28;20054;-73
2020/12/28 12:57:17;;;;;;;0.22;0.22;;;5.80;91.60;;;;;;5093467;28;20047;-73